sensor_id;sensor_type;location;lat;lon;timestamp;temperature;humidity
14585;DHT22;7379;51.506;11.876;2023-06-10T00:00:12;22.60;51.70
14585;DHT22;7379;51.506;11.876;2023-06-10T00:02:40;22.50;51.70
14585;DHT22;7379;51.506;11.876;2023-06-10T00:05:08;22.50;51.90
14585;DHT22;7379;51.506;11.876;2023-06-10T00:07:36;22.50;52.00
14585;DHT22;7379;51.506;11.876;2023-06-10T00:10:04;22.40;51.90
14585;DHT22;7379;51.506;11.876;2023-06-10T00:12:31;22.40;52.10
14585;DHT22;7379;51.506;11.876;2023-06-10T00:15:03;22.40;52.10
14585;DHT22;7379;51.506;11.876;2023-06-10T00:17:29;22.40;52.20
14585;DHT22;7379;51.506;11.876;2023-06-10T00:19:56;22.40;52.40
14585;DHT22;7379;51.506;11.876;2023-06-10T00:22:23;22.40;52.50
14585;DHT22;7379;51.506;11.876;2023-06-10T00:24:56;22.30;52.40
14585;DHT22;7379;51.506;11.876;2023-06-10T00:27:22;22.30;52.50
14585;DHT22;7379;51.506;11.876;2023-06-10T00:29:49;22.30;52.60
14585;DHT22;7379;51.506;11.876;2023-06-10T00:32:16;22.30;52.60
14585;DHT22;7379;51.506;11.876;2023-06-10T00:34:43;22.30;52.70
14585;DHT22;7379;51.506;11.876;2023-06-10T00:37:09;22.20;53.40
14585;DHT22;7379;51.506;11.876;2023-06-10T00:39:36;22.20;52.80
14585;DHT22;7379;51.506;11.876;2023-06-10T00:42:05;22.20;52.90
14585;DHT22;7379;51.506;11.876;2023-06-10T00:44:32;22.10;52.90
14585;DHT22;7379;51.506;11.876;2023-06-10T00:46:59;22.10;53.00
14585;DHT22;7379;51.506;11.876;2023-06-10T00:49:26;22.10;53.00
14585;DHT22;7379;51.506;11.876;2023-06-10T00:51:53;22.10;53.20
14585;DHT22;7379;51.506;11.876;2023-06-10T00:54:20;22.10;53.20
14585;DHT22;7379;51.506;11.876;2023-06-10T00:56:48;22.10;53.30
14585;DHT22;7379;51.506;11.876;2023-06-10T00:59:17;22.00;53.30
14585;DHT22;7379;51.506;11.876;2023-06-10T01:01:44;22.00;53.40
14585;DHT22;7379;51.506;11.876;2023-06-10T01:04:12;22.00;53.50
14585;DHT22;7379;51.506;11.876;2023-06-10T01:06:46;22.00;53.60
14585;DHT22;7379;51.506;11.876;2023-06-10T01:09:21;22.00;53.60
14585;DHT22;7379;51.506;11.876;2023-06-10T01:11:54;21.90;53.70
14585;DHT22;7379;51.506;11.876;2023-06-10T01:14:25;21.90;53.80
14585;DHT22;7379;51.506;11.876;2023-06-10T01:16:52;21.90;53.90
14585;DHT22;7379;51.506;11.876;2023-06-10T01:19:19;21.90;54.00
14585;DHT22;7379;51.506;11.876;2023-06-10T01:21:51;21.90;54.10
14585;DHT22;7379;51.506;11.876;2023-06-10T01:24:20;21.80;54.00
14585;DHT22;7379;51.506;11.876;2023-06-10T01:26:49;21.80;54.20
14585;DHT22;7379;51.506;11.876;2023-06-10T01:29:19;21.80;54.20
14585;DHT22;7379;51.506;11.876;2023-06-10T01:31:51;21.80;54.40
14585;DHT22;7379;51.506;11.876;2023-06-10T01:34:24;21.70;54.30
14585;DHT22;7379;51.506;11.876;2023-06-10T01:36:55;21.70;54.50
14585;DHT22;7379;51.506;11.876;2023-06-10T01:39:24;21.70;54.60
14585;DHT22;7379;51.506;11.876;2023-06-10T01:41:52;21.60;54.50
14585;DHT22;7379;51.506;11.876;2023-06-10T01:44:22;21.60;54.60
14585;DHT22;7379;51.506;11.876;2023-06-10T01:46:48;21.60;54.70
14585;DHT22;7379;51.506;11.876;2023-06-10T01:49:16;21.60;54.80
14585;DHT22;7379;51.506;11.876;2023-06-10T01:51:42;21.60;54.90
14585;DHT22;7379;51.506;11.876;2023-06-10T01:54:10;21.50;54.90
14585;DHT22;7379;51.506;11.876;2023-06-10T01:56:37;21.50;55.00
14585;DHT22;7379;51.506;11.876;2023-06-10T01:59:04;21.50;55.10
14585;DHT22;7379;51.506;11.876;2023-06-10T02:01:32;21.50;55.20
14585;DHT22;7379;51.506;11.876;2023-06-10T02:03:58;21.40;55.10
14585;DHT22;7379;51.506;11.876;2023-06-10T02:06:25;21.40;55.20
14585;DHT22;7379;51.506;11.876;2023-06-10T02:08:52;21.40;55.30
14585;DHT22;7379;51.506;11.876;2023-06-10T02:11:20;21.40;55.40
14585;DHT22;7379;51.506;11.876;2023-06-10T02:13:47;21.40;55.40
14585;DHT22;7379;51.506;11.876;2023-06-10T02:16:13;21.40;55.60
14585;DHT22;7379;51.506;11.876;2023-06-10T02:18:42;21.30;55.50
14585;DHT22;7379;51.506;11.876;2023-06-10T02:21:09;21.30;55.60
14585;DHT22;7379;51.506;11.876;2023-06-10T02:23:36;21.30;55.70
14585;DHT22;7379;51.506;11.876;2023-06-10T02:26:03;21.30;55.70
14585;DHT22;7379;51.506;11.876;2023-06-10T02:28:31;21.30;55.80
14585;DHT22;7379;51.506;11.876;2023-06-10T02:30:58;21.20;55.80
14585;DHT22;7379;51.506;11.876;2023-06-10T02:33:26;21.20;55.90
14585;DHT22;7379;51.506;11.876;2023-06-10T02:35:53;21.20;56.00
14585;DHT22;7379;51.506;11.876;2023-06-10T02:38:19;21.20;56.10
14585;DHT22;7379;51.506;11.876;2023-06-10T02:40:46;21.10;56.10
14585;DHT22;7379;51.506;11.876;2023-06-10T02:43:13;21.10;56.10
14585;DHT22;7379;51.506;11.876;2023-06-10T02:45:41;21.10;56.20
14585;DHT22;7379;51.506;11.876;2023-06-10T02:48:08;21.10;56.30
14585;DHT22;7379;51.506;11.876;2023-06-10T02:50:34;21.10;56.30
14585;DHT22;7379;51.506;11.876;2023-06-10T02:53:01;21.00;56.30
14585;DHT22;7379;51.506;11.876;2023-06-10T02:55:28;21.00;56.40
14585;DHT22;7379;51.506;11.876;2023-06-10T02:57:54;21.00;56.50
14585;DHT22;7379;51.506;11.876;2023-06-10T03:00:21;21.00;56.60
14585;DHT22;7379;51.506;11.876;2023-06-10T03:02:50;20.90;56.60
14585;DHT22;7379;51.506;11.876;2023-06-10T03:05:17;20.90;56.60
14585;DHT22;7379;51.506;11.876;2023-06-10T03:07:43;20.90;56.70
14585;DHT22;7379;51.506;11.876;2023-06-10T03:10:11;20.90;56.80
14585;DHT22;7379;51.506;11.876;2023-06-10T03:12:38;20.80;56.80
14585;DHT22;7379;51.506;11.876;2023-06-10T03:15:06;20.80;56.90
14585;DHT22;7379;51.506;11.876;2023-06-10T03:17:33;20.80;57.00
14585;DHT22;7379;51.506;11.876;2023-06-10T03:20:01;20.80;57.00
14585;DHT22;7379;51.506;11.876;2023-06-10T03:22:28;20.80;57.10
14585;DHT22;7379;51.506;11.876;2023-06-10T03:24:55;20.70;57.10
14585;DHT22;7379;51.506;11.876;2023-06-10T03:27:22;20.70;57.10
14585;DHT22;7379;51.506;11.876;2023-06-10T03:29:49;20.70;57.20
14585;DHT22;7379;51.506;11.876;2023-06-10T03:32:16;20.70;57.30
14585;DHT22;7379;51.506;11.876;2023-06-10T03:34:43;20.60;57.30
14585;DHT22;7379;51.506;11.876;2023-06-10T03:37:12;20.60;57.40
14585;DHT22;7379;51.506;11.876;2023-06-10T03:39:39;20.60;57.40
14585;DHT22;7379;51.506;11.876;2023-06-10T03:42:06;20.60;57.50
14585;DHT22;7379;51.506;11.876;2023-06-10T03:44:33;20.60;57.60
14585;DHT22;7379;51.506;11.876;2023-06-10T03:47:00;20.60;57.60
14585;DHT22;7379;51.506;11.876;2023-06-10T03:49:26;20.50;57.60
14585;DHT22;7379;51.506;11.876;2023-06-10T03:51:54;20.50;57.60
14585;DHT22;7379;51.506;11.876;2023-06-10T03:54:22;20.50;57.70
14585;DHT22;7379;51.506;11.876;2023-06-10T03:56:49;20.50;57.80
14585;DHT22;7379;51.506;11.876;2023-06-10T03:59:16;20.50;57.90
14585;DHT22;7379;51.506;11.876;2023-06-10T04:01:42;20.40;57.80
14585;DHT22;7379;51.506;11.876;2023-06-10T04:04:11;20.40;58.00
14585;DHT22;7379;51.506;11.876;2023-06-10T04:06:38;20.40;58.00
14585;DHT22;7379;51.506;11.876;2023-06-10T04:09:06;20.40;58.10
14585;DHT22;7379;51.506;11.876;2023-06-10T04:11:36;20.40;58.20
14585;DHT22;7379;51.506;11.876;2023-06-10T04:14:03;20.40;58.30
14585;DHT22;7379;51.506;11.876;2023-06-10T04:16:30;20.40;58.30
14585;DHT22;7379;51.506;11.876;2023-06-10T04:18:56;20.30;58.30
14585;DHT22;7379;51.506;11.876;2023-06-10T04:21:23;20.30;58.30
14585;DHT22;7379;51.506;11.876;2023-06-10T04:23:50;20.30;58.40
14585;DHT22;7379;51.506;11.876;2023-06-10T04:26:16;20.20;58.40
14585;DHT22;7379;51.506;11.876;2023-06-10T04:28:45;20.20;58.40
14585;DHT22;7379;51.506;11.876;2023-06-10T04:31:12;20.20;58.50
14585;DHT22;7379;51.506;11.876;2023-06-10T04:33:39;20.20;58.60
14585;DHT22;7379;51.506;11.876;2023-06-10T04:36:05;20.20;58.60
14585;DHT22;7379;51.506;11.876;2023-06-10T04:38:33;20.20;58.70
14585;DHT22;7379;51.506;11.876;2023-06-10T04:40:59;20.20;58.70
14585;DHT22;7379;51.506;11.876;2023-06-10T04:43:26;20.20;58.80
14585;DHT22;7379;51.506;11.876;2023-06-10T04:45:55;20.20;58.80
14585;DHT22;7379;51.506;11.876;2023-06-10T04:48:21;20.10;58.80
14585;DHT22;7379;51.506;11.876;2023-06-10T04:50:49;20.10;58.90
14585;DHT22;7379;51.506;11.876;2023-06-10T04:53:16;20.10;58.90
14585;DHT22;7379;51.506;11.876;2023-06-10T04:55:43;20.10;59.10
14585;DHT22;7379;51.506;11.876;2023-06-10T04:58:10;20.10;59.40
14585;DHT22;7379;51.506;11.876;2023-06-10T05:00:36;20.10;59.40
14585;DHT22;7379;51.506;11.876;2023-06-10T05:03:04;20.10;59.30
14585;DHT22;7379;51.506;11.876;2023-06-10T05:05:31;20.10;59.40
14585;DHT22;7379;51.506;11.876;2023-06-10T05:07:58;20.10;59.40
14585;DHT22;7379;51.506;11.876;2023-06-10T05:10:24;20.10;59.40
14585;DHT22;7379;51.506;11.876;2023-06-10T05:12:51;20.10;59.50
14585;DHT22;7379;51.506;11.876;2023-06-10T05:15:18;20.10;59.40
14585;DHT22;7379;51.506;11.876;2023-06-10T05:17:45;20.10;59.50
14585;DHT22;7379;51.506;11.876;2023-06-10T05:20:13;20.10;59.50
14585;DHT22;7379;51.506;11.876;2023-06-10T05:22:40;20.10;59.80
14585;DHT22;7379;51.506;11.876;2023-06-10T05:25:07;20.10;59.80
14585;DHT22;7379;51.506;11.876;2023-06-10T05:27:34;20.10;59.70
14585;DHT22;7379;51.506;11.876;2023-06-10T05:30:01;20.10;59.70
14585;DHT22;7379;51.506;11.876;2023-06-10T05:32:28;20.10;59.70
14585;DHT22;7379;51.506;11.876;2023-06-10T05:34:55;20.10;59.80
14585;DHT22;7379;51.506;11.876;2023-06-10T05:37:23;20.10;60.10
14585;DHT22;7379;51.506;11.876;2023-06-10T05:39:50;20.20;60.50
14585;DHT22;7379;51.506;11.876;2023-06-10T05:42:17;20.20;60.60
14585;DHT22;7379;51.506;11.876;2023-06-10T05:44:44;20.20;60.60
14585;DHT22;7379;51.506;11.876;2023-06-10T05:47:11;20.20;60.60
14585;DHT22;7379;51.506;11.876;2023-06-10T05:49:38;20.20;60.50
14585;DHT22;7379;51.506;11.876;2023-06-10T05:52:05;20.20;60.60
14585;DHT22;7379;51.506;11.876;2023-06-10T05:54:33;20.20;60.60
14585;DHT22;7379;51.506;11.876;2023-06-10T05:57:00;20.20;60.70
14585;DHT22;7379;51.506;11.876;2023-06-10T05:59:27;20.20;60.60
14585;DHT22;7379;51.506;11.876;2023-06-10T06:01:53;20.20;60.60
14585;DHT22;7379;51.506;11.876;2023-06-10T06:04:20;20.20;60.90
14585;DHT22;7379;51.506;11.876;2023-06-10T06:06:47;20.20;61.00
14585;DHT22;7379;51.506;11.876;2023-06-10T06:09:13;20.20;61.10
14585;DHT22;7379;51.506;11.876;2023-06-10T06:11:42;20.20;61.00
14585;DHT22;7379;51.506;11.876;2023-06-10T06:14:08;20.20;61.00
14585;DHT22;7379;51.506;11.876;2023-06-10T06:16:35;20.20;61.10
14585;DHT22;7379;51.506;11.876;2023-06-10T06:19:02;20.20;61.10
14585;DHT22;7379;51.506;11.876;2023-06-10T06:21:28;20.20;61.20
14585;DHT22;7379;51.506;11.876;2023-06-10T06:23:55;20.20;61.10
14585;DHT22;7379;51.506;11.876;2023-06-10T06:26:23;20.20;61.10
14585;DHT22;7379;51.506;11.876;2023-06-10T06:28:52;20.20;61.30
14585;DHT22;7379;51.506;11.876;2023-06-10T06:31:18;20.20;61.40
14585;DHT22;7379;51.506;11.876;2023-06-10T06:33:45;20.20;61.30
14585;DHT22;7379;51.506;11.876;2023-06-10T06:36:12;20.20;61.40
14585;DHT22;7379;51.506;11.876;2023-06-10T06:38:39;20.20;61.40
14585;DHT22;7379;51.506;11.876;2023-06-10T06:41:05;20.30;61.50
14585;DHT22;7379;51.506;11.876;2023-06-10T06:43:32;20.30;61.60
14585;DHT22;7379;51.506;11.876;2023-06-10T06:46:00;20.30;61.50
14585;DHT22;7379;51.506;11.876;2023-06-10T06:48:27;20.30;61.60
14585;DHT22;7379;51.506;11.876;2023-06-10T06:50:54;20.30;61.70
14585;DHT22;7379;51.506;11.876;2023-06-10T06:53:21;20.30;61.80
14585;DHT22;7379;51.506;11.876;2023-06-10T06:55:48;20.30;61.80
14585;DHT22;7379;51.506;11.876;2023-06-10T06:58:15;20.30;61.90
14585;DHT22;7379;51.506;11.876;2023-06-10T07:00:41;20.30;62.10
14585;DHT22;7379;51.506;11.876;2023-06-10T07:03:09;20.40;62.00
14585;DHT22;7379;51.506;11.876;2023-06-10T07:05:37;20.40;61.90
14585;DHT22;7379;51.506;11.876;2023-06-10T07:08:04;20.40;62.10
14585;DHT22;7379;51.506;11.876;2023-06-10T07:10:31;20.40;62.10
14585;DHT22;7379;51.506;11.876;2023-06-10T07:12:58;20.40;62.10
14585;DHT22;7379;51.506;11.876;2023-06-10T07:15:25;20.50;62.10
14585;DHT22;7379;51.506;11.876;2023-06-10T07:17:52;20.50;62.10
14585;DHT22;7379;51.506;11.876;2023-06-10T07:20:20;20.50;62.30
14585;DHT22;7379;51.506;11.876;2023-06-10T07:22:46;20.50;62.20
14585;DHT22;7379;51.506;11.876;2023-06-10T07:25:13;20.50;62.30
14585;DHT22;7379;51.506;11.876;2023-06-10T07:27:41;20.50;62.30
14585;DHT22;7379;51.506;11.876;2023-06-10T07:30:16;20.60;62.40
14585;DHT22;7379;51.506;11.876;2023-06-10T07:32:43;20.60;62.70
14585;DHT22;7379;51.506;11.876;2023-06-10T07:35:10;20.60;62.50
14585;DHT22;7379;51.506;11.876;2023-06-10T07:37:38;20.50;62.70
14585;DHT22;7379;51.506;11.876;2023-06-10T07:40:06;20.60;62.70
14585;DHT22;7379;51.506;11.876;2023-06-10T07:42:35;20.60;62.70
14585;DHT22;7379;51.506;11.876;2023-06-10T07:45:02;20.60;62.90
14585;DHT22;7379;51.506;11.876;2023-06-10T07:47:29;20.60;62.70
14585;DHT22;7379;51.506;11.876;2023-06-10T07:49:56;20.60;63.10
14585;DHT22;7379;51.506;11.876;2023-06-10T07:52:22;20.70;62.90
14585;DHT22;7379;51.506;11.876;2023-06-10T07:54:51;20.70;63.00
14585;DHT22;7379;51.506;11.876;2023-06-10T07:57:18;20.70;63.00
14585;DHT22;7379;51.506;11.876;2023-06-10T07:59:45;20.70;62.90
14585;DHT22;7379;51.506;11.876;2023-06-10T08:02:12;20.70;62.80
14585;DHT22;7379;51.506;11.876;2023-06-10T08:04:39;20.70;62.90
14585;DHT22;7379;51.506;11.876;2023-06-10T08:07:05;20.80;63.00
14585;DHT22;7379;51.506;11.876;2023-06-10T08:09:32;20.80;63.20
14585;DHT22;7379;51.506;11.876;2023-06-10T08:12:01;20.80;63.20
14585;DHT22;7379;51.506;11.876;2023-06-10T08:14:28;20.80;63.20
14585;DHT22;7379;51.506;11.876;2023-06-10T08:16:54;20.80;63.40
14585;DHT22;7379;51.506;11.876;2023-06-10T08:19:21;20.80;63.20
14585;DHT22;7379;51.506;11.876;2023-06-10T08:21:48;20.80;63.10
14585;DHT22;7379;51.506;11.876;2023-06-10T08:24:14;20.90;63.30
14585;DHT22;7379;51.506;11.876;2023-06-10T08:26:44;20.90;63.30
14585;DHT22;7379;51.506;11.876;2023-06-10T08:29:13;20.90;63.30
14585;DHT22;7379;51.506;11.876;2023-06-10T08:31:41;20.90;63.60
14585;DHT22;7379;51.506;11.876;2023-06-10T08:34:08;20.90;63.50
14585;DHT22;7379;51.506;11.876;2023-06-10T08:36:35;20.90;63.70
14585;DHT22;7379;51.506;11.876;2023-06-10T08:39:02;20.90;63.80
14585;DHT22;7379;51.506;11.876;2023-06-10T08:41:31;20.90;63.80
14585;DHT22;7379;51.506;11.876;2023-06-10T08:44:06;21.00;64.00
14585;DHT22;7379;51.506;11.876;2023-06-10T08:46:36;20.90;64.10
14585;DHT22;7379;51.506;11.876;2023-06-10T08:49:05;20.90;64.10
14585;DHT22;7379;51.506;11.876;2023-06-10T08:51:35;20.90;64.20
14585;DHT22;7379;51.506;11.876;2023-06-10T08:54:05;20.90;64.30
14585;DHT22;7379;51.506;11.876;2023-06-10T08:56:37;20.90;64.60
14585;DHT22;7379;51.506;11.876;2023-06-10T08:59:05;20.90;64.80
14585;DHT22;7379;51.506;11.876;2023-06-10T09:01:32;20.90;64.70
14585;DHT22;7379;51.506;11.876;2023-06-10T09:04:01;20.90;64.70
14585;DHT22;7379;51.506;11.876;2023-06-10T09:09:50;21.00;65.00
14585;DHT22;7379;51.506;11.876;2023-06-10T09:12:19;20.90;65.00
14585;DHT22;7379;51.506;11.876;2023-06-10T09:14:46;21.00;65.20
14585;DHT22;7379;51.506;11.876;2023-06-10T09:17:12;20.90;65.10
14585;DHT22;7379;51.506;11.876;2023-06-10T09:19:41;20.90;65.20
14585;DHT22;7379;51.506;11.876;2023-06-10T09:22:08;21.00;65.30
14585;DHT22;7379;51.506;11.876;2023-06-10T09:24:35;20.90;65.40
14585;DHT22;7379;51.506;11.876;2023-06-10T09:27:03;21.00;65.40
14585;DHT22;7379;51.506;11.876;2023-06-10T09:29:30;20.90;65.30
14585;DHT22;7379;51.506;11.876;2023-06-10T09:31:57;21.00;65.40
14585;DHT22;7379;51.506;11.876;2023-06-10T09:34:25;20.90;65.70
14585;DHT22;7379;51.506;11.876;2023-06-10T09:36:53;21.00;65.80
14585;DHT22;7379;51.506;11.876;2023-06-10T09:39:21;21.00;65.80
14585;DHT22;7379;51.506;11.876;2023-06-10T09:41:48;21.00;65.80
14585;DHT22;7379;51.506;11.876;2023-06-10T09:44:16;21.00;66.00
14585;DHT22;7379;51.506;11.876;2023-06-10T09:46:45;21.00;66.00
14585;DHT22;7379;51.506;11.876;2023-06-10T09:49:12;21.00;66.40
14585;DHT22;7379;51.506;11.876;2023-06-10T09:51:49;21.00;66.30
14585;DHT22;7379;51.506;11.876;2023-06-10T09:54:18;21.00;66.20
14585;DHT22;7379;51.506;11.876;2023-06-10T09:56:47;21.00;65.80
14585;DHT22;7379;51.506;11.876;2023-06-10T09:59:14;21.00;65.50
14585;DHT22;7379;51.506;11.876;2023-06-10T10:01:41;21.10;65.70
14585;DHT22;7379;51.506;11.876;2023-06-10T10:04:08;21.10;65.80
14585;DHT22;7379;51.506;11.876;2023-06-10T10:06:35;21.10;65.70
14585;DHT22;7379;51.506;11.876;2023-06-10T10:09:03;21.10;65.50
14585;DHT22;7379;51.506;11.876;2023-06-10T10:11:33;21.10;65.50
14585;DHT22;7379;51.506;11.876;2023-06-10T10:14:03;21.10;65.30
14585;DHT22;7379;51.506;11.876;2023-06-10T10:16:35;21.10;65.50
14585;DHT22;7379;51.506;11.876;2023-06-10T10:19:07;21.20;65.50
14585;DHT22;7379;51.506;11.876;2023-06-10T10:21:37;21.20;65.50
14585;DHT22;7379;51.506;11.876;2023-06-10T10:24:09;21.20;65.30
14585;DHT22;7379;51.506;11.876;2023-06-10T10:26:40;21.20;65.40
14585;DHT22;7379;51.506;11.876;2023-06-10T10:29:11;21.30;65.20
14585;DHT22;7379;51.506;11.876;2023-06-10T10:31:42;21.30;65.10
14585;DHT22;7379;51.506;11.876;2023-06-10T10:34:15;21.30;65.40
14585;DHT22;7379;51.506;11.876;2023-06-10T10:36:43;21.30;65.60
14585;DHT22;7379;51.506;11.876;2023-06-10T10:39:10;21.30;65.30
14585;DHT22;7379;51.506;11.876;2023-06-10T10:41:39;21.40;65.20
14585;DHT22;7379;51.506;11.876;2023-06-10T10:44:07;21.40;64.70
14585;DHT22;7379;51.506;11.876;2023-06-10T10:46:42;21.40;64.60
14585;DHT22;7379;51.506;11.876;2023-06-10T10:49:12;21.40;64.80
14585;DHT22;7379;51.506;11.876;2023-06-10T10:51:54;21.50;64.60
14585;DHT22;7379;51.506;11.876;2023-06-10T10:54:28;21.50;65.00
14585;DHT22;7379;51.506;11.876;2023-06-10T10:57:15;21.60;65.10
14585;DHT22;7379;51.506;11.876;2023-06-10T10:59:46;21.60;64.80
14585;DHT22;7379;51.506;11.876;2023-06-10T11:02:16;21.60;64.60
14585;DHT22;7379;51.506;11.876;2023-06-10T11:04:46;21.70;65.00
14585;DHT22;7379;51.506;11.876;2023-06-10T11:07:13;21.70;64.40
14585;DHT22;7379;51.506;11.876;2023-06-10T11:09:57;21.70;64.70
14585;DHT22;7379;51.506;11.876;2023-06-10T11:12:26;21.70;64.80
14585;DHT22;7379;51.506;11.876;2023-06-10T11:14:55;21.70;65.10
14585;DHT22;7379;51.506;11.876;2023-06-10T11:17:22;21.70;64.20
14585;DHT22;7379;51.506;11.876;2023-06-10T11:19:49;21.80;64.70
14585;DHT22;7379;51.506;11.876;2023-06-10T11:22:17;21.80;64.80
14585;DHT22;7379;51.506;11.876;2023-06-10T11:24:47;21.90;64.50
14585;DHT22;7379;51.506;11.876;2023-06-10T11:27:16;21.90;64.20
14585;DHT22;7379;51.506;11.876;2023-06-10T11:29:58;21.90;64.00
14585;DHT22;7379;51.506;11.876;2023-06-10T11:32:29;22.00;63.90
14585;DHT22;7379;51.506;11.876;2023-06-10T11:34:57;22.00;63.90
14585;DHT22;7379;51.506;11.876;2023-06-10T11:37:35;22.00;63.90
14585;DHT22;7379;51.506;11.876;2023-06-10T11:40:03;22.00;63.50
14585;DHT22;7379;51.506;11.876;2023-06-10T11:42:30;22.00;63.40
14585;DHT22;7379;51.506;11.876;2023-06-10T11:45:09;22.10;63.20
14585;DHT22;7379;51.506;11.876;2023-06-10T11:47:40;22.10;63.30
14585;DHT22;7379;51.506;11.876;2023-06-10T11:50:28;22.20;63.20
14585;DHT22;7379;51.506;11.876;2023-06-10T11:52:56;22.20;63.30
14585;DHT22;7379;51.506;11.876;2023-06-10T11:55:24;22.30;63.40
14585;DHT22;7379;51.506;11.876;2023-06-10T11:57:51;22.20;62.90
14585;DHT22;7379;51.506;11.876;2023-06-10T12:00:24;22.30;62.90
14585;DHT22;7379;51.506;11.876;2023-06-10T12:02:56;22.30;62.80
14585;DHT22;7379;51.506;11.876;2023-06-10T12:05:23;22.30;62.80
14585;DHT22;7379;51.506;11.876;2023-06-10T12:07:55;22.30;62.30
14585;DHT22;7379;51.506;11.876;2023-06-10T12:10:34;22.40;62.60
14585;DHT22;7379;51.506;11.876;2023-06-10T12:13:05;22.50;62.60
14585;DHT22;7379;51.506;11.876;2023-06-10T12:15:33;22.50;62.50
14585;DHT22;7379;51.506;11.876;2023-06-10T12:18:00;22.50;62.40
14585;DHT22;7379;51.506;11.876;2023-06-10T12:20:29;22.60;62.10
14585;DHT22;7379;51.506;11.876;2023-06-10T12:22:58;22.60;61.80
14585;DHT22;7379;51.506;11.876;2023-06-10T12:25:26;22.60;62.00
14585;DHT22;7379;51.506;11.876;2023-06-10T12:27:55;22.60;61.70
14585;DHT22;7379;51.506;11.876;2023-06-10T12:30:23;22.60;61.70
14585;DHT22;7379;51.506;11.876;2023-06-10T12:32:53;22.60;61.50
14585;DHT22;7379;51.506;11.876;2023-06-10T12:35:21;22.60;61.60
14585;DHT22;7379;51.506;11.876;2023-06-10T12:37:56;22.60;61.30
14585;DHT22;7379;51.506;11.876;2023-06-10T12:40:26;22.70;61.30
14585;DHT22;7379;51.506;11.876;2023-06-10T12:42:54;22.70;60.80
14585;DHT22;7379;51.506;11.876;2023-06-10T12:45:26;22.70;60.70
14585;DHT22;7379;51.506;11.876;2023-06-10T12:48:05;22.90;60.70
14585;DHT22;7379;51.506;11.876;2023-06-10T12:50:34;23.00;60.40
14585;DHT22;7379;51.506;11.876;2023-06-10T12:53:02;23.10;60.00
14585;DHT22;7379;51.506;11.876;2023-06-10T12:55:29;23.10;59.70
14585;DHT22;7379;51.506;11.876;2023-06-10T12:57:56;23.10;59.70
14585;DHT22;7379;51.506;11.876;2023-06-10T13:00:23;23.30;59.50
14585;DHT22;7379;51.506;11.876;2023-06-10T13:02:51;23.40;59.00
14585;DHT22;7379;51.506;11.876;2023-06-10T13:05:20;23.40;58.60
14585;DHT22;7379;51.506;11.876;2023-06-10T13:07:47;23.40;58.50
14585;DHT22;7379;51.506;11.876;2023-06-10T13:10:14;23.40;58.60
14585;DHT22;7379;51.506;11.876;2023-06-10T13:12:41;23.40;58.40
14585;DHT22;7379;51.506;11.876;2023-06-10T13:15:09;23.40;58.80
14585;DHT22;7379;51.506;11.876;2023-06-10T13:17:35;23.50;58.40
14585;DHT22;7379;51.506;11.876;2023-06-10T13:20:02;23.50;58.20
14585;DHT22;7379;51.506;11.876;2023-06-10T13:22:32;23.50;57.80
14585;DHT22;7379;51.506;11.876;2023-06-10T13:25:00;23.60;57.60
14585;DHT22;7379;51.506;11.876;2023-06-10T13:27:27;23.70;57.60
14585;DHT22;7379;51.506;11.876;2023-06-10T13:29:53;23.80;57.30
14585;DHT22;7379;51.506;11.876;2023-06-10T13:32:20;23.90;56.80
14585;DHT22;7379;51.506;11.876;2023-06-10T13:34:47;24.00;56.40
14585;DHT22;7379;51.506;11.876;2023-06-10T13:37:15;24.00;56.00
14585;DHT22;7379;51.506;11.876;2023-06-10T13:39:44;24.10;55.80
14585;DHT22;7379;51.506;11.876;2023-06-10T13:42:12;24.10;55.80
14585;DHT22;7379;51.506;11.876;2023-06-10T13:44:39;24.10;56.30
14585;DHT22;7379;51.506;11.876;2023-06-10T13:47:06;24.00;56.10
14585;DHT22;7379;51.506;11.876;2023-06-10T13:49:33;24.00;55.90
14585;DHT22;7379;51.506;11.876;2023-06-10T13:52:00;23.90;56.30
14585;DHT22;7379;51.506;11.876;2023-06-10T13:54:27;23.90;55.90
14585;DHT22;7379;51.506;11.876;2023-06-10T13:56:55;23.90;55.90
14585;DHT22;7379;51.506;11.876;2023-06-10T13:59:22;23.80;55.70
14585;DHT22;7379;51.506;11.876;2023-06-10T14:01:49;23.80;56.00
14585;DHT22;7379;51.506;11.876;2023-06-10T14:04:15;23.80;56.10
14585;DHT22;7379;51.506;11.876;2023-06-10T14:06:42;23.90;56.20
14585;DHT22;7379;51.506;11.876;2023-06-10T14:09:09;23.90;56.70
14585;DHT22;7379;51.506;11.876;2023-06-10T14:11:35;24.00;56.50
14585;DHT22;7379;51.506;11.876;2023-06-10T14:14:03;24.10;56.40
14585;DHT22;7379;51.506;11.876;2023-06-10T14:16:31;24.30;56.50
14585;DHT22;7379;51.506;11.876;2023-06-10T14:18:57;24.30;56.70
14585;DHT22;7379;51.506;11.876;2023-06-10T14:21:24;24.40;56.10
14585;DHT22;7379;51.506;11.876;2023-06-10T14:23:51;24.50;54.60
14585;DHT22;7379;51.506;11.876;2023-06-10T14:26:18;24.50;54.10
14585;DHT22;7379;51.506;11.876;2023-06-10T14:28:47;24.50;53.30
14585;DHT22;7379;51.506;11.876;2023-06-10T14:31:16;24.50;52.70
14585;DHT22;7379;51.506;11.876;2023-06-10T14:33:43;24.50;52.40
14585;DHT22;7379;51.506;11.876;2023-06-10T14:36:10;24.40;52.70
14585;DHT22;7379;51.506;11.876;2023-06-10T14:38:36;24.30;52.80
14585;DHT22;7379;51.506;11.876;2023-06-10T14:41:03;24.10;52.80
14585;DHT22;7379;51.506;11.876;2023-06-10T14:43:30;24.10;52.70
14585;DHT22;7379;51.506;11.876;2023-06-10T14:45:57;24.00;53.10
14585;DHT22;7379;51.506;11.876;2023-06-10T14:48:25;23.90;53.60
14585;DHT22;7379;51.506;11.876;2023-06-10T14:50:52;23.90;53.80
14585;DHT22;7379;51.506;11.876;2023-06-10T14:53:21;23.80;54.20
14585;DHT22;7379;51.506;11.876;2023-06-10T14:55:48;23.70;55.00
14585;DHT22;7379;51.506;11.876;2023-06-10T14:58:15;23.70;56.20
14585;DHT22;7379;51.506;11.876;2023-06-10T15:00:42;23.60;56.00
14585;DHT22;7379;51.506;11.876;2023-06-10T15:03:08;23.50;56.60
14585;DHT22;7379;51.506;11.876;2023-06-10T15:05:36;23.50;57.50
14585;DHT22;7379;51.506;11.876;2023-06-10T15:08:04;23.50;57.80
14585;DHT22;7379;51.506;11.876;2023-06-10T15:10:30;23.40;58.40
14585;DHT22;7379;51.506;11.876;2023-06-10T15:12:57;23.40;59.00
14585;DHT22;7379;51.506;11.876;2023-06-10T15:15:24;23.40;59.60
14585;DHT22;7379;51.506;11.876;2023-06-10T15:17:51;23.30;59.90
14585;DHT22;7379;51.506;11.876;2023-06-10T15:20:18;23.30;60.10
14585;DHT22;7379;51.506;11.876;2023-06-10T15:22:46;23.30;60.80
14585;DHT22;7379;51.506;11.876;2023-06-10T15:25:13;23.20;60.90
14585;DHT22;7379;51.506;11.876;2023-06-10T15:27:40;23.20;61.20
14585;DHT22;7379;51.506;11.876;2023-06-10T15:30:07;23.20;61.30
14585;DHT22;7379;51.506;11.876;2023-06-10T15:32:37;23.20;61.40
14585;DHT22;7379;51.506;11.876;2023-06-10T15:35:04;23.10;61.10
14585;DHT22;7379;51.506;11.876;2023-06-10T15:37:31;23.10;61.20